Aérodrome :
LOGIN :

S'inscrire | Disclaimer

   EN    FR    IT 

 










Légende :    VFR   VFR Marginal   IFR   IFR Intensif   IFR Très Intensif
Visi : 
Plafond : 
>= 8 km
>= 3000ft
5 à 8 km
1000 à 3000 ft
1500m à 5 km
500 à 1000 ft
800 à 1500m
200 à 500 ft
< 800m
< 200 ft
Symboles :   Orages  Brouillard  Fortes neiges  Fortes précipitations  Vent > 20 kt
SIGMETs :   Divers  Orages  Givrage  Turbulence  Onde Orograph.  Cendres Volcan.






- Altitude de l'aérodrome : 1568 ft


ETSB - Büchel AB

DERNIER METAR :
  • 301920Z AUTO 30010KT 9999 // ////// 14/10 Q1013 ///

METARs EXPIRÉS :
  • 301820Z AUTO 30013KT 9999 // ////// 15/12 Q1013 ///
  • 301720Z AUTO 30014G24KT 9999 // ////// 20/15 Q1011 ///

TAF TAF ETSB
Valide du 30 à 14h jusqu'au 30 à 23h UTC


301319Z 3014/3023 17005KT 9999 NSW SCT340
BECMG 3014/3016 22008KT 9999 NSW SCT050 BKN100
TEMPO 3014/3023 VRB15G30KT 3000 SHRA BKN005 BKN050CB
PROB30 3014/3023 VRB20G45KT 0500 +TSRAGR BKN001 BKN020CB BY ETGL



MET'MAP, la Météo Aéronautique d'un coup d'oeil ! - Copyright ORBIFLY Décembre 2007 - Disclaimer

ORBIFLY MET'MAP TEAM :

Programmation & Développement : Alexandra Zaïnal
Sur une idée originale de : Baudouin d'Aumeries
Soutien technique & logistique : Manuel Goepfert
Assistance : Marc-Olivier Méhu




SOURCES & CREDITS :

   NOAA